sensor_id;sensor_type;location;lat;lon;timestamp;P1;durP1;ratioP1;P2;durP2;ratioP2
64011;SDS011;50211;52.768;12.124;2022-07-15T00:02:23;7.63;;;1.45;;
64011;SDS011;50211;52.768;12.124;2022-07-15T00:04:48;4.50;;;1.50;;
64011;SDS011;50211;52.768;12.124;2022-07-15T00:07:14;3.90;;;1.60;;
64011;SDS011;50211;52.768;12.124;2022-07-15T00:09:39;6.15;;;1.45;;
64011;SDS011;50211;52.768;12.124;2022-07-15T00:12:24;3.70;;;1.10;;
64011;SDS011;50211;52.768;12.124;2022-07-15T00:14:49;2.27;;;1.30;;
64011;SDS011;50211;52.768;12.124;2022-07-15T00:17:15;5.30;;;1.77;;
64011;SDS011;50211;52.768;12.124;2022-07-15T00:19:40;3.37;;;1.57;;
64011;SDS011;50211;52.768;12.124;2022-07-15T00:22:06;4.55;;;1.52;;
64011;SDS011;50211;52.768;12.124;2022-07-15T00:24:32;7.20;;;1.70;;
64011;SDS011;50211;52.768;12.124;2022-07-15T00:26:57;3.90;;;1.33;;
64011;SDS011;50211;52.768;12.124;2022-07-15T00:29:23;5.33;;;1.40;;
64011;SDS011;50211;52.768;12.124;2022-07-15T00:31:50;4.40;;;1.50;;
64011;SDS011;50211;52.768;12.124;2022-07-15T00:34:16;10.53;;;1.80;;
64011;SDS011;50211;52.768;12.124;2022-07-15T00:36:41;10.38;;;1.40;;
64011;SDS011;50211;52.768;12.124;2022-07-15T00:39:07;7.80;;;1.83;;
64011;SDS011;50211;52.768;12.124;2022-07-15T00:41:40;3.90;;;1.35;;
64011;SDS011;50211;52.768;12.124;2022-07-15T00:44:07;8.57;;;1.60;;
64011;SDS011;50211;52.768;12.124;2022-07-15T00:46:34;7.50;;;1.77;;
64011;SDS011;50211;52.768;12.124;2022-07-15T00:49:00;4.07;;;1.37;;
64011;SDS011;50211;52.768;12.124;2022-07-15T00:51:28;3.23;;;1.40;;
64011;SDS011;50211;52.768;12.124;2022-07-15T00:54:00;3.60;;;1.37;;
64011;SDS011;50211;52.768;12.124;2022-07-15T00:56:27;7.20;;;1.48;;
64011;SDS011;50211;52.768;12.124;2022-07-15T00:58:55;3.53;;;1.37;;
64011;SDS011;50211;52.768;12.124;2022-07-15T01:01:23;5.83;;;1.77;;
64011;SDS011;50211;52.768;12.124;2022-07-15T01:03:48;8.50;;;1.73;;
64011;SDS011;50211;52.768;12.124;2022-07-15T01:06:15;5.93;;;1.60;;
64011;SDS011;50211;52.768;12.124;2022-07-15T01:08:41;6.07;;;1.90;;
64011;SDS011;50211;52.768;12.124;2022-07-15T01:11:06;4.77;;;1.77;;
64011;SDS011;50211;52.768;12.124;2022-07-15T01:13:32;9.77;;;1.50;;
64011;SDS011;50211;52.768;12.124;2022-07-15T01:15:57;6.30;;;1.30;;
64011;SDS011;50211;52.768;12.124;2022-07-15T01:18:23;10.37;;;1.67;;
64011;SDS011;50211;52.768;12.124;2022-07-15T01:20:49;6.07;;;1.43;;
64011;SDS011;50211;52.768;12.124;2022-07-15T01:23:14;5.50;;;1.30;;
64011;SDS011;50211;52.768;12.124;2022-07-15T01:25:40;6.37;;;1.77;;
64011;SDS011;50211;52.768;12.124;2022-07-15T01:28:07;6.07;;;1.70;;
64011;SDS011;50211;52.768;12.124;2022-07-15T01:30:33;5.53;;;1.50;;
64011;SDS011;50211;52.768;12.124;2022-07-15T01:32:59;3.60;;;1.50;;
64011;SDS011;50211;52.768;12.124;2022-07-15T01:35:25;2.70;;;1.40;;
64011;SDS011;50211;52.768;12.124;2022-07-15T01:37:51;7.17;;;1.47;;
64011;SDS011;50211;52.768;12.124;2022-07-15T01:40:16;7.87;;;1.70;;
64011;SDS011;50211;52.768;12.124;2022-07-15T01:42:42;8.93;;;1.43;;
64011;SDS011;50211;52.768;12.124;2022-07-15T01:45:09;5.37;;;1.43;;
64011;SDS011;50211;52.768;12.124;2022-07-15T01:47:42;6.63;;;1.97;;
64011;SDS011;50211;52.768;12.124;2022-07-15T01:50:12;9.80;;;1.60;;
64011;SDS011;50211;52.768;12.124;2022-07-15T01:52:37;4.77;;;1.33;;
64011;SDS011;50211;52.768;12.124;2022-07-15T01:55:03;6.97;;;1.33;;
64011;SDS011;50211;52.768;12.124;2022-07-15T01:57:30;12.43;;;1.83;;
64011;SDS011;50211;52.768;12.124;2022-07-15T01:59:55;8.50;;;1.63;;
64011;SDS011;50211;52.768;12.124;2022-07-15T02:02:21;9.53;;;1.70;;
64011;SDS011;50211;52.768;12.124;2022-07-15T02:04:47;6.53;;;1.27;;
64011;SDS011;50211;52.768;12.124;2022-07-15T02:07:12;6.03;;;1.27;;
64011;SDS011;50211;52.768;12.124;2022-07-15T02:09:38;8.90;;;1.60;;
64011;SDS011;50211;52.768;12.124;2022-07-15T02:12:03;5.37;;;1.53;;
64011;SDS011;50211;52.768;12.124;2022-07-15T02:14:31;5.20;;;1.53;;
64011;SDS011;50211;52.768;12.124;2022-07-15T02:16:56;4.53;;;1.53;;
64011;SDS011;50211;52.768;12.124;2022-07-15T02:19:22;17.37;;;1.70;;
64011;SDS011;50211;52.768;12.124;2022-07-15T02:21:47;4.90;;;1.50;;
64011;SDS011;50211;52.768;12.124;2022-07-15T02:24:13;8.73;;;1.80;;
64011;SDS011;50211;52.768;12.124;2022-07-15T02:26:39;6.13;;;1.60;;
64011;SDS011;50211;52.768;12.124;2022-07-15T02:29:05;6.57;;;2.23;;
64011;SDS011;50211;52.768;12.124;2022-07-15T02:31:31;3.60;;;1.40;;
64011;SDS011;50211;52.768;12.124;2022-07-15T02:33:57;13.60;;;2.00;;
64011;SDS011;50211;52.768;12.124;2022-07-15T02:36:22;10.00;;;1.70;;
64011;SDS011;50211;52.768;12.124;2022-07-15T02:38:48;9.80;;;1.70;;
64011;SDS011;50211;52.768;12.124;2022-07-15T02:41:14;5.03;;;1.27;;
64011;SDS011;50211;52.768;12.124;2022-07-15T02:43:40;8.97;;;1.90;;
64011;SDS011;50211;52.768;12.124;2022-07-15T02:46:06;6.67;;;1.60;;
64011;SDS011;50211;52.768;12.124;2022-07-15T02:48:34;5.50;;;1.90;;
64011;SDS011;50211;52.768;12.124;2022-07-15T02:50:59;5.97;;;1.60;;
64011;SDS011;50211;52.768;12.124;2022-07-15T02:53:25;8.13;;;1.60;;
64011;SDS011;50211;52.768;12.124;2022-07-15T02:55:54;8.37;;;1.70;;
64011;SDS011;50211;52.768;12.124;2022-07-15T02:58:20;9.07;;;1.73;;
64011;SDS011;50211;52.768;12.124;2022-07-15T03:00:46;6.73;;;1.67;;
64011;SDS011;50211;52.768;12.124;2022-07-15T03:03:12;9.80;;;1.43;;
64011;SDS011;50211;52.768;12.124;2022-07-15T03:05:37;5.40;;;1.27;;
64011;SDS011;50211;52.768;12.124;2022-07-15T03:08:02;5.90;;;1.53;;
64011;SDS011;50211;52.768;12.124;2022-07-15T03:10:28;5.37;;;1.53;;
64011;SDS011;50211;52.768;12.124;2022-07-15T03:12:53;5.37;;;1.30;;
64011;SDS011;50211;52.768;12.124;2022-07-15T03:15:19;6.60;;;1.60;;
64011;SDS011;50211;52.768;12.124;2022-07-15T03:17:45;6.87;;;1.30;;
64011;SDS011;50211;52.768;12.124;2022-07-15T03:20:11;8.57;;;1.63;;
64011;SDS011;50211;52.768;12.124;2022-07-15T03:22:36;10.00;;;1.33;;
64011;SDS011;50211;52.768;12.124;2022-07-15T03:25:02;6.23;;;1.40;;
64011;SDS011;50211;52.768;12.124;2022-07-15T03:27:28;5.17;;;1.80;;
64011;SDS011;50211;52.768;12.124;2022-07-15T03:29:53;7.00;;;1.70;;
64011;SDS011;50211;52.768;12.124;2022-07-15T03:32:19;6.43;;;1.63;;
64011;SDS011;50211;52.768;12.124;2022-07-15T03:34:45;9.57;;;1.50;;
64011;SDS011;50211;52.768;12.124;2022-07-15T03:37:11;8.13;;;1.60;;
64011;SDS011;50211;52.768;12.124;2022-07-15T03:39:37;4.97;;;1.47;;
64011;SDS011;50211;52.768;12.124;2022-07-15T03:42:03;5.50;;;1.67;;
64011;SDS011;50211;52.768;12.124;2022-07-15T03:44:28;7.63;;;1.40;;
64011;SDS011;50211;52.768;12.124;2022-07-15T03:46:54;7.70;;;1.37;;
64011;SDS011;50211;52.768;12.124;2022-07-15T03:49:20;7.40;;;1.40;;
64011;SDS011;50211;52.768;12.124;2022-07-15T03:51:45;8.13;;;1.40;;
64011;SDS011;50211;52.768;12.124;2022-07-15T03:54:11;5.87;;;1.30;;
64011;SDS011;50211;52.768;12.124;2022-07-15T03:56:36;9.67;;;1.57;;
64011;SDS011;50211;52.768;12.124;2022-07-15T03:59:02;7.37;;;1.60;;
64011;SDS011;50211;52.768;12.124;2022-07-15T04:01:28;20.17;;;2.27;;
64011;SDS011;50211;52.768;12.124;2022-07-15T04:03:53;5.00;;;1.57;;
64011;SDS011;50211;52.768;12.124;2022-07-15T04:06:20;8.03;;;1.70;;
64011;SDS011;50211;52.768;12.124;2022-07-15T04:08:46;9.93;;;1.70;;
64011;SDS011;50211;52.768;12.124;2022-07-15T04:11:12;5.87;;;1.37;;
64011;SDS011;50211;52.768;12.124;2022-07-15T04:13:38;6.20;;;1.70;;
64011;SDS011;50211;52.768;12.124;2022-07-15T04:16:04;10.63;;;1.20;;
64011;SDS011;50211;52.768;12.124;2022-07-15T04:18:31;4.43;;;1.35;;
64011;SDS011;50211;52.768;12.124;2022-07-15T04:20:56;6.70;;;1.50;;
64011;SDS011;50211;52.768;12.124;2022-07-15T04:23:22;4.30;;;1.30;;
64011;SDS011;50211;52.768;12.124;2022-07-15T04:25:49;6.33;;;1.43;;
64011;SDS011;50211;52.768;12.124;2022-07-15T04:28:16;6.90;;;1.27;;
64011;SDS011;50211;52.768;12.124;2022-07-15T04:30:42;3.65;;;1.20;;
64011;SDS011;50211;52.768;12.124;2022-07-15T04:33:08;2.47;;;1.23;;
64011;SDS011;50211;52.768;12.124;2022-07-15T04:35:33;11.37;;;1.30;;
64011;SDS011;50211;52.768;12.124;2022-07-15T04:37:59;11.97;;;2.17;;
64011;SDS011;50211;52.768;12.124;2022-07-15T04:40:25;9.37;;;1.60;;
64011;SDS011;50211;52.768;12.124;2022-07-15T04:42:50;5.33;;;1.33;;
64011;SDS011;50211;52.768;12.124;2022-07-15T04:45:16;3.60;;;1.95;;
64011;SDS011;50211;52.768;12.124;2022-07-15T04:47:41;10.27;;;1.50;;
64011;SDS011;50211;52.768;12.124;2022-07-15T04:50:07;5.05;;;1.13;;
64011;SDS011;50211;52.768;12.124;2022-07-15T04:52:51;5.73;;;1.17;;
64011;SDS011;50211;52.768;12.124;2022-07-15T04:55:17;6.23;;;1.37;;
64011;SDS011;50211;52.768;12.124;2022-07-15T04:57:42;9.80;;;1.90;;
64011;SDS011;50211;52.768;12.124;2022-07-15T05:00:08;12.73;;;2.50;;
64011;SDS011;50211;52.768;12.124;2022-07-15T05:02:35;3.95;;;1.27;;
64011;SDS011;50211;52.768;12.124;2022-07-15T05:05:00;8.90;;;1.90;;
64011;SDS011;50211;52.768;12.124;2022-07-15T05:07:26;4.28;;;1.30;;
64011;SDS011;50211;52.768;12.124;2022-07-15T05:09:51;5.68;;;1.35;;
64011;SDS011;50211;52.768;12.124;2022-07-15T05:12:17;6.22;;;1.13;;
64011;SDS011;50211;52.768;12.124;2022-07-15T05:14:43;2.97;;;1.20;;
64011;SDS011;50211;52.768;12.124;2022-07-15T05:17:08;4.45;;;1.17;;
64011;SDS011;50211;52.768;12.124;2022-07-15T05:19:34;6.60;;;1.23;;
64011;SDS011;50211;52.768;12.124;2022-07-15T05:22:00;6.03;;;1.55;;
64011;SDS011;50211;52.768;12.124;2022-07-15T05:24:26;7.20;;;1.48;;
64011;SDS011;50211;52.768;12.124;2022-07-15T05:26:51;9.20;;;1.40;;
64011;SDS011;50211;52.768;12.124;2022-07-15T05:29:17;5.65;;;1.52;;
64011;SDS011;50211;52.768;12.124;2022-07-15T05:31:42;6.15;;;1.33;;
64011;SDS011;50211;52.768;12.124;2022-07-15T05:34:08;7.90;;;1.30;;
64011;SDS011;50211;52.768;12.124;2022-07-15T05:36:34;8.52;;;1.42;;
64011;SDS011;50211;52.768;12.124;2022-07-15T05:39:00;5.25;;;0.90;;
64011;SDS011;50211;52.768;12.124;2022-07-15T05:41:26;2.38;;;1.00;;
64011;SDS011;50211;52.768;12.124;2022-07-15T05:43:51;2.45;;;1.00;;
64011;SDS011;50211;52.768;12.124;2022-07-15T05:46:17;4.72;;;1.25;;
64011;SDS011;50211;52.768;12.124;2022-07-15T05:48:43;4.75;;;1.15;;
64011;SDS011;50211;52.768;12.124;2022-07-15T05:51:08;9.80;;;1.13;;
64011;SDS011;50211;52.768;12.124;2022-07-15T05:53:33;8.25;;;1.42;;
64011;SDS011;50211;52.768;12.124;2022-07-15T05:55:59;3.35;;;1.13;;
64011;SDS011;50211;52.768;12.124;2022-07-15T05:58:25;4.30;;;1.00;;
64011;SDS011;50211;52.768;12.124;2022-07-15T06:00:51;6.13;;;1.33;;
64011;SDS011;50211;52.768;12.124;2022-07-15T06:03:17;7.85;;;1.30;;
64011;SDS011;50211;52.768;12.124;2022-07-15T06:05:43;4.72;;;1.58;;
64011;SDS011;50211;52.768;12.124;2022-07-15T06:08:09;7.20;;;1.13;;
64011;SDS011;50211;52.768;12.124;2022-07-15T06:10:35;6.88;;;1.17;;
64011;SDS011;50211;52.768;12.124;2022-07-15T06:13:02;5.65;;;0.90;;
64011;SDS011;50211;52.768;12.124;2022-07-15T06:15:28;4.47;;;1.13;;
64011;SDS011;50211;52.768;12.124;2022-07-15T06:17:53;5.85;;;1.02;;
64011;SDS011;50211;52.768;12.124;2022-07-15T06:20:19;6.50;;;1.27;;
64011;SDS011;50211;52.768;12.124;2022-07-15T06:22:44;4.72;;;1.10;;
64011;SDS011;50211;52.768;12.124;2022-07-15T06:25:10;7.93;;;1.02;;
64011;SDS011;50211;52.768;12.124;2022-07-15T06:27:36;5.22;;;1.00;;
64011;SDS011;50211;52.768;12.124;2022-07-15T06:30:02;4.57;;;0.77;;
64011;SDS011;50211;52.768;12.124;2022-07-15T06:32:29;5.22;;;0.85;;
64011;SDS011;50211;52.768;12.124;2022-07-15T06:34:54;3.15;;;1.05;;
64011;SDS011;50211;52.768;12.124;2022-07-15T06:37:20;7.47;;;1.17;;
64011;SDS011;50211;52.768;12.124;2022-07-15T06:39:46;3.05;;;0.88;;
64011;SDS011;50211;52.768;12.124;2022-07-15T06:42:12;4.35;;;0.80;;
64011;SDS011;50211;52.768;12.124;2022-07-15T06:44:37;6.50;;;1.02;;
64011;SDS011;50211;52.768;12.124;2022-07-15T06:47:03;6.60;;;0.95;;
64011;SDS011;50211;52.768;12.124;2022-07-15T06:49:31;5.20;;;0.77;;
64011;SDS011;50211;52.768;12.124;2022-07-15T06:51:57;3.42;;;0.93;;
64011;SDS011;50211;52.768;12.124;2022-07-15T06:54:23;3.58;;;0.82;;
64011;SDS011;50211;52.768;12.124;2022-07-15T06:56:49;3.08;;;0.60;;
64011;SDS011;50211;52.768;12.124;2022-07-15T06:59:14;5.10;;;1.15;;
64011;SDS011;50211;52.768;12.124;2022-07-15T07:01:40;5.47;;;1.08;;
64011;SDS011;50211;52.768;12.124;2022-07-15T07:04:06;3.50;;;0.93;;
64011;SDS011;50211;52.768;12.124;2022-07-15T07:06:31;6.15;;;0.95;;
64011;SDS011;50211;52.768;12.124;2022-07-15T07:08:57;1.48;;;0.70;;
64011;SDS011;50211;52.768;12.124;2022-07-15T07:11:23;4.38;;;0.85;;
64011;SDS011;50211;52.768;12.124;2022-07-15T07:13:48;4.28;;;0.63;;
64011;SDS011;50211;52.768;12.124;2022-07-15T07:16:14;2.83;;;0.70;;
64011;SDS011;50211;52.768;12.124;2022-07-15T07:18:40;5.28;;;0.70;;
64011;SDS011;50211;52.768;12.124;2022-07-15T07:21:06;4.57;;;0.73;;
64011;SDS011;50211;52.768;12.124;2022-07-15T07:23:31;3.03;;;0.70;;
64011;SDS011;50211;52.768;12.124;2022-07-15T07:25:57;3.50;;;0.75;;
64011;SDS011;50211;52.768;12.124;2022-07-15T07:28:24;3.35;;;0.80;;
64011;SDS011;50211;52.768;12.124;2022-07-15T07:30:50;4.90;;;0.80;;
64011;SDS011;50211;52.768;12.124;2022-07-15T07:33:17;5.50;;;1.00;;
64011;SDS011;50211;52.768;12.124;2022-07-15T07:35:43;5.35;;;0.70;;
64011;SDS011;50211;52.768;12.124;2022-07-15T07:38:09;5.75;;;0.80;;
64011;SDS011;50211;52.768;12.124;2022-07-15T07:40:35;1.75;;;0.70;;
64011;SDS011;50211;52.768;12.124;2022-07-15T07:43:01;5.22;;;0.70;;
64011;SDS011;50211;52.768;12.124;2022-07-15T07:45:27;1.73;;;0.70;;
64011;SDS011;50211;52.768;12.124;2022-07-15T07:47:55;7.85;;;1.17;;
64011;SDS011;50211;52.768;12.124;2022-07-15T07:50:21;4.65;;;0.75;;
64011;SDS011;50211;52.768;12.124;2022-07-15T07:52:47;4.03;;;0.90;;
64011;SDS011;50211;52.768;12.124;2022-07-15T07:55:13;11.55;;;0.98;;
64011;SDS011;50211;52.768;12.124;2022-07-15T07:57:49;2.83;;;0.77;;
64011;SDS011;50211;52.768;12.124;2022-07-15T08:00:16;3.45;;;0.98;;
64011;SDS011;50211;52.768;12.124;2022-07-15T08:02:42;4.18;;;1.13;;
64011;SDS011;50211;52.768;12.124;2022-07-15T08:05:08;5.88;;;0.60;;
64011;SDS011;50211;52.768;12.124;2022-07-15T08:07:34;4.75;;;0.80;;
64011;SDS011;50211;52.768;12.124;2022-07-15T08:10:01;4.18;;;0.98;;
64011;SDS011;50211;52.768;12.124;2022-07-15T08:12:27;5.60;;;0.90;;
64011;SDS011;50211;52.768;12.124;2022-07-15T08:14:53;2.55;;;0.80;;
64011;SDS011;50211;52.768;12.124;2022-07-15T08:17:20;6.88;;;0.93;;
64011;SDS011;50211;52.768;12.124;2022-07-15T08:19:46;3.45;;;1.42;;
64011;SDS011;50211;52.768;12.124;2022-07-15T08:22:11;3.40;;;0.90;;
64011;SDS011;50211;52.768;12.124;2022-07-15T08:24:37;4.80;;;0.68;;
64011;SDS011;50211;52.768;12.124;2022-07-15T08:27:02;6.72;;;1.15;;
64011;SDS011;50211;52.768;12.124;2022-07-15T08:29:28;6.32;;;0.70;;
64011;SDS011;50211;52.768;12.124;2022-07-15T08:31:53;3.45;;;0.98;;
64011;SDS011;50211;52.768;12.124;2022-07-15T08:34:19;7.50;;;1.00;;
64011;SDS011;50211;52.768;12.124;2022-07-15T08:36:44;1.88;;;0.70;;
64011;SDS011;50211;52.768;12.124;2022-07-15T08:39:10;2.60;;;0.70;;
64011;SDS011;50211;52.768;12.124;2022-07-15T08:41:37;4.30;;;0.63;;
64011;SDS011;50211;52.768;12.124;2022-07-15T08:44:02;1.48;;;0.50;;
64011;SDS011;50211;52.768;12.124;2022-07-15T08:46:29;8.30;;;0.65;;
64011;SDS011;50211;52.768;12.124;2022-07-15T08:48:58;3.05;;;0.70;;
64011;SDS011;50211;52.768;12.124;2022-07-15T08:51:30;3.05;;;0.70;;
64011;SDS011;50211;52.768;12.124;2022-07-15T08:54:01;5.13;;;1.20;;
64011;SDS011;50211;52.768;12.124;2022-07-15T08:56:27;5.10;;;0.80;;
64011;SDS011;50211;52.768;12.124;2022-07-15T08:58:52;1.50;;;0.70;;
64011;SDS011;50211;52.768;12.124;2022-07-15T09:01:18;2.75;;;0.60;;
64011;SDS011;50211;52.768;12.124;2022-07-15T09:03:44;6.70;;;0.85;;
64011;SDS011;50211;52.768;12.124;2022-07-15T09:06:10;2.90;;;1.05;;
64011;SDS011;50211;52.768;12.124;2022-07-15T09:08:56;2.60;;;0.65;;
64011;SDS011;50211;52.768;12.124;2022-07-15T09:11:27;3.97;;;1.08;;
64011;SDS011;50211;52.768;12.124;2022-07-15T09:13:54;4.05;;;0.98;;
64011;SDS011;50211;52.768;12.124;2022-07-15T09:16:19;3.30;;;0.60;;
64011;SDS011;50211;52.768;12.124;2022-07-15T09:18:46;5.85;;;0.80;;
64011;SDS011;50211;52.768;12.124;2022-07-15T09:21:18;2.50;;;0.82;;
64011;SDS011;50211;52.768;12.124;2022-07-15T09:23:51;3.30;;;1.38;;
64011;SDS011;50211;52.768;12.124;2022-07-15T09:28:52;7.28;;;0.80;;
64011;SDS011;50211;52.768;12.124;2022-07-15T09:34:15;5.97;;;0.80;;
64011;SDS011;50211;52.768;12.124;2022-07-15T09:36:43;6.78;;;1.20;;
64011;SDS011;50211;52.768;12.124;2022-07-15T09:39:19;2.60;;;0.80;;
64011;SDS011;50211;52.768;12.124;2022-07-15T09:41:46;1.85;;;0.57;;
64011;SDS011;50211;52.768;12.124;2022-07-15T09:44:14;5.57;;;0.80;;
64011;SDS011;50211;52.768;12.124;2022-07-15T09:46:48;3.90;;;0.70;;
64011;SDS011;50211;52.768;12.124;2022-07-15T09:54:22;3.00;;;0.70;;
64011;SDS011;50211;52.768;12.124;2022-07-15T09:56:49;2.42;;;0.70;;
64011;SDS011;50211;52.768;12.124;2022-07-15T09:59:16;2.75;;;0.70;;
64011;SDS011;50211;52.768;12.124;2022-07-15T10:01:42;1.38;;;0.55;;
64011;SDS011;50211;52.768;12.124;2022-07-15T10:04:09;1.75;;;0.68;;
64011;SDS011;50211;52.768;12.124;2022-07-15T10:06:36;6.15;;;0.60;;
64011;SDS011;50211;52.768;12.124;2022-07-15T10:09:03;2.83;;;0.70;;
64011;SDS011;50211;52.768;12.124;2022-07-15T10:11:31;1.60;;;0.50;;
64011;SDS011;50211;52.768;12.124;2022-07-15T10:14:15;0.88;;;0.55;;
64011;SDS011;50211;52.768;12.124;2022-07-15T10:26:00;2.75;;;0.60;;
64011;SDS011;50211;52.768;12.124;2022-07-15T10:28:49;2.35;;;0.70;;
64011;SDS011;50211;52.768;12.124;2022-07-15T10:31:21;4.38;;;0.90;;
64011;SDS011;50211;52.768;12.124;2022-07-15T10:37:14;3.47;;;0.90;;
64011;SDS011;50211;52.768;12.124;2022-07-15T10:39:17;3.45;;;0.60;;
64011;SDS011;50211;52.768;12.124;2022-07-15T10:41:53;5.07;;;0.60;;
64011;SDS011;50211;52.768;12.124;2022-07-15T10:44:25;1.70;;;0.70;;
64011;SDS011;50211;52.768;12.124;2022-07-15T10:47:16;3.95;;;0.60;;
64011;SDS011;50211;52.768;12.124;2022-07-15T10:49:44;4.13;;;0.60;;
64011;SDS011;50211;52.768;12.124;2022-07-15T10:54:46;3.08;;;0.80;;
64011;SDS011;50211;52.768;12.124;2022-07-15T10:57:21;3.35;;;0.75;;
64011;SDS011;50211;52.768;12.124;2022-07-15T11:03:01;2.35;;;0.90;;
64011;SDS011;50211;52.768;12.124;2022-07-15T11:06:02;2.85;;;0.95;;
64011;SDS011;50211;52.768;12.124;2022-07-15T11:13:40;2.65;;;0.82;;
64011;SDS011;50211;52.768;12.124;2022-07-15T11:16:14;2.83;;;0.95;;
64011;SDS011;50211;52.768;12.124;2022-07-15T11:18:45;3.08;;;0.85;;
64011;SDS011;50211;52.768;12.124;2022-07-15T11:21:11;3.22;;;0.90;;
64011;SDS011;50211;52.768;12.124;2022-07-15T11:23:37;2.38;;;0.93;;
64011;SDS011;50211;52.768;12.124;2022-07-15T11:26:03;4.53;;;0.93;;
64011;SDS011;50211;52.768;12.124;2022-07-15T11:28:28;3.50;;;1.05;;
64011;SDS011;50211;52.768;12.124;2022-07-15T11:30:54;3.10;;;0.80;;
64011;SDS011;50211;52.768;12.124;2022-07-15T11:33:20;5.47;;;0.80;;
64011;SDS011;50211;52.768;12.124;2022-07-15T11:35:57;5.00;;;0.98;;
64011;SDS011;50211;52.768;12.124;2022-07-15T11:38:28;3.05;;;0.75;;
64011;SDS011;50211;52.768;12.124;2022-07-15T11:40:56;8.98;;;0.77;;
64011;SDS011;50211;52.768;12.124;2022-07-15T11:43:42;4.82;;;1.00;;
64011;SDS011;50211;52.768;12.124;2022-07-15T11:46:27;4.35;;;1.00;;
64011;SDS011;50211;52.768;12.124;2022-07-15T11:48:54;6.28;;;0.85;;
64011;SDS011;50211;52.768;12.124;2022-07-15T11:51:28;3.75;;;0.70;;
64011;SDS011;50211;52.768;12.124;2022-07-15T11:53:55;2.58;;;0.95;;
64011;SDS011;50211;52.768;12.124;2022-07-15T11:56:22;2.38;;;0.82;;
64011;SDS011;50211;52.768;12.124;2022-07-15T11:58:52;2.28;;;0.98;;
64011;SDS011;50211;52.768;12.124;2022-07-15T12:01:23;3.60;;;0.70;;
64011;SDS011;50211;52.768;12.124;2022-07-15T12:03:53;1.48;;;0.68;;
64011;SDS011;50211;52.768;12.124;2022-07-15T12:06:30;2.03;;;0.60;;
64011;SDS011;50211;52.768;12.124;2022-07-15T12:08:58;1.92;;;1.00;;
64011;SDS011;50211;52.768;12.124;2022-07-15T12:11:35;1.92;;;0.70;;
64011;SDS011;50211;52.768;12.124;2022-07-15T12:14:12;2.22;;;0.63;;
64011;SDS011;50211;52.768;12.124;2022-07-15T12:16:43;4.25;;;0.75;;
64011;SDS011;50211;52.768;12.124;2022-07-15T12:19:12;2.08;;;0.75;;
64011;SDS011;50211;52.768;12.124;2022-07-15T12:21:38;3.30;;;1.05;;
64011;SDS011;50211;52.768;12.124;2022-07-15T12:26:37;3.88;;;0.93;;
64011;SDS011;50211;52.768;12.124;2022-07-15T12:29:05;3.90;;;0.95;;
64011;SDS011;50211;52.768;12.124;2022-07-15T12:31:33;3.40;;;0.82;;
64011;SDS011;50211;52.768;12.124;2022-07-15T12:33:59;1.88;;;0.73;;
64011;SDS011;50211;52.768;12.124;2022-07-15T12:36:28;2.45;;;0.95;;
64011;SDS011;50211;52.768;12.124;2022-07-15T12:41:41;4.50;;;0.80;;
64011;SDS011;50211;52.768;12.124;2022-07-15T12:44:08;2.60;;;0.88;;
64011;SDS011;50211;52.768;12.124;2022-07-15T12:52:22;1.00;;;0.80;;
64011;SDS011;50211;52.768;12.124;2022-07-15T12:54:56;4.57;;;0.90;;
64011;SDS011;50211;52.768;12.124;2022-07-15T12:57:25;2.33;;;0.70;;
64011;SDS011;50211;52.768;12.124;2022-07-15T12:59:57;6.95;;;1.50;;
64011;SDS011;50211;52.768;12.124;2022-07-15T13:02:25;0.82;;;0.60;;
64011;SDS011;50211;52.768;12.124;2022-07-15T13:04:51;4.88;;;0.90;;
64011;SDS011;50211;52.768;12.124;2022-07-15T13:07:17;2.08;;;0.70;;
64011;SDS011;50211;52.768;12.124;2022-07-15T13:09:43;1.60;;;0.60;;
64011;SDS011;50211;52.768;12.124;2022-07-15T13:12:09;3.85;;;0.70;;
64011;SDS011;50211;52.768;12.124;2022-07-15T13:14:36;6.60;;;0.82;;
64011;SDS011;50211;52.768;12.124;2022-07-15T13:17:03;0.88;;;0.45;;
64011;SDS011;50211;52.768;12.124;2022-07-15T13:19:29;2.97;;;0.85;;
64011;SDS011;50211;52.768;12.124;2022-07-15T13:21:55;1.48;;;0.68;;
64011;SDS011;50211;52.768;12.124;2022-07-15T13:24:21;1.48;;;0.50;;
64011;SDS011;50211;52.768;12.124;2022-07-15T13:26:46;2.10;;;0.50;;
64011;SDS011;50211;52.768;12.124;2022-07-15T13:29:12;2.70;;;0.60;;
64011;SDS011;50211;52.768;12.124;2022-07-15T13:31:37;0.70;;;0.60;;
64011;SDS011;50211;52.768;12.124;2022-07-15T13:34:03;2.28;;;0.90;;
64011;SDS011;50211;52.768;12.124;2022-07-15T13:36:29;3.20;;;0.80;;
64011;SDS011;50211;52.768;12.124;2022-07-15T13:38:54;2.67;;;0.47;;
64011;SDS011;50211;52.768;12.124;2022-07-15T13:41:20;2.65;;;0.70;;
64011;SDS011;50211;52.768;12.124;2022-07-15T13:43:46;3.45;;;0.70;;
64011;SDS011;50211;52.768;12.124;2022-07-15T13:46:12;4.03;;;0.80;;
64011;SDS011;50211;52.768;12.124;2022-07-15T13:48:37;2.03;;;0.70;;
64011;SDS011;50211;52.768;12.124;2022-07-15T13:51:03;5.53;;;1.00;;
64011;SDS011;50211;52.768;12.124;2022-07-15T13:53:47;1.48;;;0.80;;
64011;SDS011;50211;52.768;12.124;2022-07-15T13:56:12;2.85;;;0.50;;
64011;SDS011;50211;52.768;12.124;2022-07-15T13:58:38;1.30;;;0.50;;
64011;SDS011;50211;52.768;12.124;2022-07-15T14:01:03;2.00;;;0.60;;
64011;SDS011;50211;52.768;12.124;2022-07-15T14:03:29;1.67;;;0.70;;
64011;SDS011;50211;52.768;12.124;2022-07-15T14:05:54;4.25;;;0.75;;
64011;SDS011;50211;52.768;12.124;2022-07-15T14:08:20;1.25;;;0.80;;
64011;SDS011;50211;52.768;12.124;2022-07-15T14:10:46;3.10;;;0.73;;
64011;SDS011;50211;52.768;12.124;2022-07-15T14:13:11;1.60;;;0.70;;
64011;SDS011;50211;52.768;12.124;2022-07-15T14:15:37;2.47;;;0.63;;
64011;SDS011;50211;52.768;12.124;2022-07-15T14:18:02;3.72;;;0.57;;
64011;SDS011;50211;52.768;12.124;2022-07-15T14:20:28;2.28;;;0.70;;
64011;SDS011;50211;52.768;12.124;2022-07-15T14:22:54;5.95;;;0.80;;
64011;SDS011;50211;52.768;12.124;2022-07-15T14:25:20;1.88;;;0.50;;
64011;SDS011;50211;52.768;12.124;2022-07-15T14:27:45;1.30;;;0.70;;
64011;SDS011;50211;52.768;12.124;2022-07-15T14:30:11;2.30;;;0.68;;
64011;SDS011;50211;52.768;12.124;2022-07-15T14:32:38;2.95;;;0.70;;
64011;SDS011;50211;52.768;12.124;2022-07-15T14:35:04;3.72;;;0.60;;
64011;SDS011;50211;52.768;12.124;2022-07-15T14:37:30;2.78;;;0.75;;
64011;SDS011;50211;52.768;12.124;2022-07-15T14:39:55;2.78;;;0.60;;
64011;SDS011;50211;52.768;12.124;2022-07-15T14:42:21;2.38;;;0.75;;
64011;SDS011;50211;52.768;12.124;2022-07-15T14:44:46;2.58;;;0.70;;
64011;SDS011;50211;52.768;12.124;2022-07-15T14:47:12;2.33;;;0.70;;
64011;SDS011;50211;52.768;12.124;2022-07-15T14:49:37;1.20;;;0.50;;
64011;SDS011;50211;52.768;12.124;2022-07-15T14:52:03;3.13;;;0.60;;
64011;SDS011;50211;52.768;12.124;2022-07-15T14:54:28;2.78;;;0.60;;
64011;SDS011;50211;52.768;12.124;2022-07-15T14:56:54;2.75;;;0.68;;
64011;SDS011;50211;52.768;12.124;2022-07-15T14:59:19;3.63;;;0.70;;
64011;SDS011;50211;52.768;12.124;2022-07-15T15:01:45;2.15;;;0.73;;
64011;SDS011;50211;52.768;12.124;2022-07-15T15:04:11;4.50;;;0.60;;
64011;SDS011;50211;52.768;12.124;2022-07-15T15:06:36;1.90;;;0.77;;
64011;SDS011;50211;52.768;12.124;2022-07-15T15:09:02;4.25;;;0.90;;
64011;SDS011;50211;52.768;12.124;2022-07-15T15:11:28;3.17;;;0.70;;
64011;SDS011;50211;52.768;12.124;2022-07-15T15:13:54;1.17;;;0.47;;
64011;SDS011;50211;52.768;12.124;2022-07-15T15:16:19;6.03;;;0.65;;
64011;SDS011;50211;52.768;12.124;2022-07-15T15:18:45;2.70;;;0.68;;